Time;durP1;ratioP1;P1;durP2;ratioP2;P2;SDS_P1;SDS_P2;PMS_P1;PMS_P2;Temp;Humidity;BMP_temperature;BMP_pressure;BME280_temperature;BME280_humidity;BME280_pressure;Samples;Min_cycle;Max_cycle;Signal;HPM_P1;HPM_P2
2023/02/14 00:02:17;;;;;;;30.00;14.45;;;;;;;5.50;53.24;101304.03;5034093;28;20040;-64
2023/02/14 00:04:44;;;;;;;29.60;15.38;;;;;;;5.47;52.76;101301.56;5035920;28;20036;-64
2023/02/14 00:07:10;;;;;;;27.05;14.43;;;;;;;5.44;53.16;101298.19;5036703;28;20067;-62
2023/02/14 00:09:36;;;;;;;22.08;13.35;;;;;;;5.39;53.10;101299.41;5035172;28;20101;-62
2023/02/14 00:12:02;;;;;;;27.88;14.32;;;;;;;5.34;53.39;101304.09;5036739;28;20090;-62
2023/02/14 00:17:12;;;;;;;26.20;14.50;;;;;;;5.40;52.98;101312.44;5031156;28;20239;-63
2023/02/14 00:19:37;;;;;;;26.02;13.98;;;;;;;5.43;53.33;101316.69;5034538;28;20236;-63
2023/02/14 00:22:04;;;;;;;23.02;13.95;;;;;;;5.42;53.04;101318.47;5034629;28;20036;-62
2023/02/14 00:24:30;;;;;;;26.02;12.57;;;;;;;5.46;52.94;101311.25;5035462;28;20322;-62
2023/02/14 00:26:56;;;;;;;26.27;13.50;;;;;;;5.22;53.26;101307.44;5035801;28;20075;-62
2023/02/14 00:29:25;;;;;;;25.13;13.68;;;;;;;5.01;54.53;101315.59;5033785;28;20347;-64
2023/02/14 00:31:50;;;;;;;27.40;12.95;;;;;;;4.81;55.04;101318.50;5034584;28;20046;-64
2023/02/14 00:34:17;;;;;;;22.88;13.27;;;;;;;4.84;55.02;101317.50;5034529;28;20037;-62
2023/02/14 00:36:43;;;;;;;23.10;13.55;;;;;;;5.16;54.23;101313.00;5033932;28;20037;-62
2023/02/14 00:39:11;;;;;;;22.25;12.88;;;;;;;5.33;53.50;101312.91;5036136;28;20377;-62
2023/02/14 00:41:37;;;;;;;40.60;18.63;;;;;;;5.36;53.32;101321.44;5036553;28;21023;-64
2023/02/14 00:44:04;;;;;;;56.58;24.98;;;;;;;5.23;53.40;101322.25;5036505;28;20068;-63
2023/02/14 00:46:29;;;;;;;36.33;17.55;;;;;;;4.96;54.15;101322.88;5038550;28;20053;-62
2023/02/14 00:48:55;;;;;;;46.65;20.67;;;;;;;4.94;54.08;101321.28;5039386;28;20045;-62
2023/02/14 00:51:21;;;;;;;63.38;26.85;;;;;;;4.90;54.60;101328.47;5037577;28;20885;-61
2023/02/14 00:53:48;;;;;;;37.20;17.45;;;;;;;4.94;54.58;101335.25;5036955;28;20049;-61
2023/02/14 00:56:14;;;;;;;30.08;15.98;;;;;;;4.87;54.49;101341.78;5038773;28;20056;-63
2023/02/14 00:58:40;;;;;;;32.03;15.18;;;;;;;4.45;55.93;101350.25;5036657;28;20037;-63
2023/02/14 01:01:06;;;;;;;37.03;18.08;;;;;;;4.38;56.87;101341.88;5038500;28;20228;-61
2023/02/14 01:03:32;;;;;;;31.65;16.80;;;;;;;4.40;56.69;101340.03;5038218;28;20339;-62
2023/02/14 01:05:57;;;;;;;29.15;15.65;;;;;;;4.42;56.90;101324.19;5036742;28;20041;-63
2023/02/14 01:08:23;;;;;;;36.08;18.10;;;;;;;4.39;57.24;101327.00;5038872;28;20367;-65
2023/02/14 01:10:49;;;;;;;30.92;16.25;;;;;;;4.28;57.52;101308.38;5038865;28;20048;-62
2023/02/14 01:13:15;;;;;;;38.65;19.83;;;;;;;4.21;58.03;101313.09;5039462;28;20075;-63
2023/02/14 01:15:44;;;;;;;32.25;16.23;;;;;;;4.37;56.89;101300.84;5037363;28;20251;-62
2023/02/14 01:18:10;;;;;;;34.28;17.38;;;;;;;4.46;56.99;101302.13;5038307;28;20057;-64
2023/02/14 01:20:35;;;;;;;38.33;19.15;;;;;;;4.49;56.86;101310.66;5039647;28;21237;-64
2023/02/14 01:23:01;;;;;;;39.85;20.08;;;;;;;4.44;57.02;101303.97;5037427;28;20116;-62
2023/02/14 01:25:27;;;;;;;53.88;22.48;;;;;;;4.45;56.64;101293.41;5038434;28;20038;-62
2023/02/14 01:27:52;;;;;;;43.22;20.35;;;;;;;4.56;56.68;101298.06;5036342;28;20029;-62
2023/02/14 01:30:18;;;;;;;41.63;19.13;;;;;;;4.42;56.72;101290.94;5039284;28;20320;-62
2023/02/14 01:32:43;;;;;;;42.72;19.98;;;;;;;4.40;56.68;101284.09;5036594;28;20021;-64
2023/02/14 01:35:09;;;;;;;33.13;16.92;;;;;;;4.34;56.76;101287.06;5037333;28;20037;-63
2023/02/14 01:37:36;;;;;;;35.78;17.23;;;;;;;4.34;56.81;101293.16;5038670;28;20036;-62
2023/02/14 01:40:02;;;;;;;47.30;22.65;;;;;;;4.34;56.92;101295.78;5038025;28;20032;-62
2023/02/14 01:42:28;;;;;;;86.35;37.00;;;;;;;4.38;56.28;101289.44;5037895;28;20052;-62
2023/02/14 01:44:58;;;;;;;118.00;53.22;;;;;;;4.45;56.13;101282.91;5038806;28;20327;-63
2023/02/14 01:47:27;;;;;;;155.98;59.35;;;;;;;4.48;55.38;101284.53;5036773;28;20036;-63
2023/02/14 01:49:58;;;;;;;97.95;39.47;;;;;;;4.44;55.55;101285.63;5038213;28;20121;-62
2023/02/14 01:52:36;;;;;;;58.17;29.23;;;;;;;4.42;55.70;101280.47;5037354;28;20227;-61
2023/02/14 01:55:11;;;;;;;41.38;20.77;;;;;;;4.18;56.22;101283.59;5036852;28;20065;-62
2023/02/14 01:57:47;;;;;;;32.35;18.00;;;;;;;4.06;56.74;101275.44;5036862;28;20037;-63
2023/02/14 02:03:00;;;;;;;26.70;14.75;;;;;;;4.07;57.00;101260.53;5036748;28;20251;-63
2023/02/14 02:05:26;;;;;;;27.95;14.95;;;;;;;4.07;56.90;101261.41;5036691;28;20053;-62
2023/02/14 02:07:55;;;;;;;28.75;15.45;;;;;;;4.19;56.05;101259.91;5039349;28;20033;-63
2023/02/14 02:10:20;;;;;;;34.25;15.70;;;;;;;4.16;56.26;101257.41;5038624;28;20122;-64
2023/02/14 02:12:49;;;;;;;28.17;13.52;;;;;;;4.14;55.79;101251.41;5028511;28;20045;-63
2023/02/14 02:15:14;;;;;;;21.83;11.90;;;;;;;4.11;55.92;101251.59;5037761;28;20063;-63
2023/02/14 02:18:10;;;;;;;21.10;11.50;;;;;;;4.09;55.59;101249.06;5036724;28;20343;-63
2023/02/14 02:20:44;;;;;;;21.70;11.90;;;;;;;4.00;55.81;101249.56;5035158;28;20394;-63
2023/02/14 02:23:39;;;;;;;24.13;10.80;;;;;;;3.88;56.22;101244.97;5036539;28;20088;-62
2023/02/14 02:26:27;;;;;;;;;;;;;;;3.71;57.36;101243.25;5032725;28;20045;-62
2023/02/14 02:29:26;;;;;;;19.25;9.93;;;;;;;3.75;57.19;101238.69;5035619;28;19954;-62
2023/02/14 02:32:10;;;;;;;22.75;10.00;;;;;;;3.83;57.28;101229.50;5036709;28;20121;-64
2023/02/14 02:35:13;;;;;;;20.45;10.55;;;;;;;4.04;56.67;101231.88;5037023;28;20238;-63
2023/02/14 02:38:07;;;;;;;25.08;10.70;;;;;;;4.09;56.25;101228.09;5035651;28;20229;-61
2023/02/14 02:40:55;;;;;;;19.80;11.02;;;;;;;4.08;56.32;101228.16;5030678;28;20053;-62
2023/02/14 02:43:59;;;;;;;20.25;10.32;;;;;;;4.21;55.85;101234.44;5035792;28;20278;-64
2023/02/14 02:46:48;;;;;;;21.70;10.38;;;;;;;4.25;55.53;101225.47;5051101;28;20057;-61
2023/02/14 02:55:12;;;;;;;18.05;11.45;;;;;;;3.96;56.54;101220.97;5033061;28;20109;-63
2023/02/14 02:57:41;;;;;;;18.70;9.70;;;;;;;3.94;56.68;101213.19;5035937;28;20049;-63
2023/02/14 03:00:10;;;;;;;32.15;12.00;;;;;;;3.90;57.24;101206.44;5035597;28;20467;-62
2023/02/14 03:05:27;;;;;;;25.45;11.77;;;;;;;3.86;57.76;101189.19;5030417;28;20291;-62
2023/02/14 03:07:53;;;;;;;22.15;10.70;;;;;;;3.83;58.58;101191.97;5034152;28;20048;-64
2023/02/14 03:10:24;;;;;;;20.98;12.23;;;;;;;3.89;58.73;101196.03;5034300;28;20041;-62
2023/02/14 03:13:08;;;;;;;20.90;11.32;;;;;;;3.94;58.70;101202.72;5037183;28;20048;-62
2023/02/14 03:15:52;;;;;;;19.50;10.50;;;;;;;3.95;58.28;101201.78;5034787;28;20083;-62
2023/02/14 03:18:30;;;;;;;;;;;;;;;3.99;58.30;101207.69;5033788;28;20037;-63
2023/02/14 03:21:14;;;;;;;22.38;11.70;;;;;;;4.02;58.11;101199.66;5036408;28;19924;-63
2023/02/14 03:23:55;;;;;;;23.30;11.55;;;;;;;4.06;57.83;101196.78;5036494;28;20039;-62
2023/02/14 03:26:33;;;;;;;19.40;10.90;;;;;;;4.14;57.67;101184.09;5036646;28;20086;-63
2023/02/14 03:29:07;;;;;;;22.95;11.60;;;;;;;4.18;56.81;101183.97;5037294;28;20032;-62
2023/02/14 03:31:58;;;;;;;19.58;11.07;;;;;;;4.23;56.52;101179.31;5036050;28;20045;-63
2023/02/14 03:34:47;;;;;;;21.42;11.52;;;;;;;4.27;56.27;101179.06;5027227;28;20033;-62
2023/02/14 03:37:35;;;;;;;21.20;11.32;;;;;;;4.33;56.01;101177.84;5035108;28;20069;-62
2023/02/14 03:40:00;;;;;;;21.35;10.23;;;;;;;4.41;55.86;101186.97;5031791;28;20095;-62
2023/02/14 03:42:41;;;;;;;22.65;10.55;;;;;;;4.38;55.41;101184.53;5037784;28;20041;-63
2023/02/14 03:45:09;;;;;;;19.17;10.20;;;;;;;4.31;55.36;101183.19;5036790;28;20048;-62
2023/02/14 03:47:38;;;;;;;17.63;10.80;;;;;;;4.30;55.33;101184.13;5035196;28;20327;-62
2023/02/14 03:50:13;;;;;;;21.05;10.25;;;;;;;4.39;55.04;101174.88;5034309;28;20073;-61
2023/02/14 03:52:39;;;;;;;15.98;9.30;;;;;;;4.37;55.05;101195.94;5034495;28;20033;-63
2023/02/14 03:55:08;;;;;;;18.50;10.27;;;;;;;4.03;56.19;101201.34;5034832;28;20044;-64
2023/02/14 03:57:40;;;;;;;18.77;9.40;;;;;;;3.98;56.65;101200.78;5037225;28;20052;-62
2023/02/14 04:00:07;;;;;;;18.95;10.45;;;;;;;3.88;56.57;101199.59;5034816;28;20033;-62
2023/02/14 04:02:38;;;;;;;21.73;11.00;;;;;;;3.68;57.21;101201.50;5033679;28;20079;-61
2023/02/14 04:05:11;;;;;;;25.20;11.45;;;;;;;3.60;57.76;101190.59;5035505;28;20368;-64
2023/02/14 04:07:52;;;;;;;17.87;10.20;;;;;;;3.31;58.97;101175.59;5034246;28;20033;-62
2023/02/14 04:10:18;;;;;;;19.52;11.32;;;;;;;2.97;60.69;101179.09;5035074;28;20687;-61
2023/02/14 04:12:44;;;;;;;17.63;11.88;;;;;;;3.11;60.86;101179.22;5035385;28;20037;-62
2023/02/14 04:15:11;;;;;;;22.42;11.38;;;;;;;3.13;60.44;101166.94;5036296;28;20128;-62
2023/02/14 04:20:21;;;;;;;18.50;11.18;;;;;;;3.36;59.23;101161.34;5038732;28;20079;-62
2023/02/14 04:22:47;;;;;;;20.98;11.13;;;;;;;3.39;59.12;101152.47;5040633;28;20101;-61
2023/02/14 04:25:13;;;;;;;25.77;11.82;;;;;;;3.37;59.10;101147.31;5041664;28;20065;-62
2023/02/14 04:27:38;;;;;;;22.48;12.38;;;;;;;3.35;59.02;101154.41;5037207;28;20040;-62
2023/02/14 04:30:04;;;;;;;22.05;12.43;;;;;;;3.30;59.07;101145.09;5039759;28;20048;-62
2023/02/14 04:32:30;;;;;;;27.58;13.45;;;;;;;3.31;59.32;101155.50;5039314;28;20025;-61
2023/02/14 04:34:55;;;;;;;21.10;11.45;;;;;;;3.30;59.06;101142.50;5037796;28;20084;-63
2023/02/14 04:37:20;;;;;;;26.42;11.73;;;;;;;3.30;59.10;101150.34;5040523;28;20030;-62
2023/02/14 04:39:46;;;;;;;23.70;13.07;;;;;;;3.27;58.90;101148.72;5040415;28;20083;-62
2023/02/14 04:42:11;;;;;;;23.02;11.77;;;;;;;3.28;58.74;101145.19;5038591;28;20114;-63
2023/02/14 04:44:37;;;;;;;18.63;10.70;;;;;;;3.35;58.49;101143.94;5039481;28;20033;-62
2023/02/14 04:47:03;;;;;;;19.42;10.73;;;;;;;3.36;58.53;101140.38;5039384;28;20049;-62
2023/02/14 04:49:29;;;;;;;22.45;11.10;;;;;;;3.46;58.10;101130.25;5038569;28;20029;-62
2023/02/14 04:51:55;;;;;;;17.77;11.15;;;;;;;3.46;57.98;101138.13;5040287;28;20033;-64
2023/02/14 04:54:20;;;;;;;20.45;11.07;;;;;;;3.47;57.75;101132.81;5039701;28;20319;-64
2023/02/14 04:56:46;;;;;;;22.98;11.90;;;;;;;3.47;57.88;101130.19;5041453;28;20033;-61
2023/02/14 04:59:13;;;;;;;19.70;10.75;;;;;;;3.56;57.96;101130.59;5038454;28;20312;-63
2023/02/14 05:01:39;;;;;;;19.35;10.27;;;;;;;3.69;57.33;101126.38;5039934;28;20060;-62
2023/02/14 05:04:04;;;;;;;23.88;12.05;;;;;;;3.74;57.06;101108.66;5038519;28;20359;-63
2023/02/14 05:06:30;;;;;;;24.75;10.38;;;;;;;3.81;56.87;101110.00;5038302;28;20049;-64
2023/02/14 05:08:55;;;;;;;21.60;11.70;;;;;;;3.83;56.54;101103.72;5042355;28;20064;-62
2023/02/14 05:11:21;;;;;;;24.58;12.68;;;;;;;3.85;56.58;101112.34;5046994;28;20201;-63
2023/02/14 05:13:47;;;;;;;24.00;11.90;;;;;;;3.81;56.82;101110.84;5040932;28;20041;-63
2023/02/14 05:16:12;;;;;;;20.00;10.73;;;;;;;3.85;56.60;101120.22;5041133;28;20021;-64
2023/02/14 05:18:38;;;;;;;21.33;11.10;;;;;;;4.03;56.09;101118.34;5040297;28;20037;-61
2023/02/14 05:21:03;;;;;;;21.25;11.07;;;;;;;4.10;55.63;101122.28;5039778;28;20040;-63
2023/02/14 05:23:29;;;;;;;21.80;11.07;;;;;;;4.24;55.83;101128.56;5040168;28;20056;-62
2023/02/14 05:25:54;;;;;;;20.85;11.35;;;;;;;4.37;54.92;101129.53;5041718;28;20045;-64
2023/02/14 05:28:20;;;;;;;21.27;11.52;;;;;;;4.49;54.55;101131.44;5049936;28;20033;-64
2023/02/14 05:30:45;;;;;;;24.45;11.77;;;;;;;4.63;53.89;101128.03;5047987;28;20320;-62
2023/02/14 05:33:11;;;;;;;23.90;12.30;;;;;;;4.80;53.54;101130.50;5048632;28;20343;-62
2023/02/14 05:35:37;;;;;;;23.92;12.32;;;;;;;4.84;52.98;101129.38;5045088;28;20045;-62
2023/02/14 05:38:02;;;;;;;24.38;12.10;;;;;;;4.89;52.53;101123.84;5047277;28;20228;-64
2023/02/14 05:40:28;;;;;;;28.40;13.15;;;;;;;4.97;52.21;101132.94;5051312;28;20033;-64
2023/02/14 05:42:54;;;;;;;27.05;13.27;;;;;;;5.03;51.91;101126.47;5049480;28;20235;-63
2023/02/14 05:45:21;;;;;;;24.48;13.43;;;;;;;5.05;51.73;101121.97;5048007;28;20026;-63
2023/02/14 05:47:48;;;;;;;27.23;14.18;;;;;;;5.14;51.84;101129.31;5048139;28;20151;-62
2023/02/14 05:50:13;;;;;;;25.80;14.48;;;;;;;5.13;52.06;101117.94;5044974;28;20049;-63
2023/02/14 05:52:39;;;;;;;29.42;14.90;;;;;;;5.19;52.06;101114.09;5047237;28;20236;-64
2023/02/14 05:55:05;;;;;;;31.33;16.75;;;;;;;5.28;51.65;101108.31;5048432;28;20047;-60
2023/02/14 05:57:30;;;;;;;40.20;18.80;;;;;;;5.35;51.70;101103.53;5049762;28;20041;-61
2023/02/14 05:59:56;;;;;;;44.05;20.65;;;;;;;5.37;52.28;101104.28;5047518;28;20209;-60
2023/02/14 06:02:22;;;;;;;40.08;20.45;;;;;;;5.38;52.19;101104.19;5047398;28;20026;-62
2023/02/14 06:04:47;;;;;;;28.88;15.68;;;;;;;5.42;52.00;101108.31;5045141;28;20036;-61
2023/02/14 06:07:13;;;;;;;24.15;15.65;;;;;;;5.32;52.91;101109.81;5045416;28;20251;-60
2023/02/14 06:09:38;;;;;;;31.90;16.77;;;;;;;5.37;52.82;101110.38;5045518;28;20327;-60
2023/02/14 06:12:04;;;;;;;28.35;13.90;;;;;;;5.40;52.65;101118.06;5043568;28;20394;-61
2023/02/14 06:14:29;;;;;;;22.63;12.38;;;;;;;5.39;53.25;101119.00;5052855;28;20052;-62
2023/02/14 06:16:55;;;;;;;21.23;12.05;;;;;;;5.31;53.82;101121.25;5031768;28;20409;-61
2023/02/14 06:19:20;;;;;;;24.15;12.90;;;;;;;5.23;53.85;101114.78;5037994;28;20033;-60
2023/02/14 06:21:46;;;;;;;27.05;14.93;;;;;;;5.27;53.80;101113.66;5036959;28;20351;-60
2023/02/14 06:24:11;;;;;;;27.02;13.77;;;;;;;5.24;54.25;101112.06;5038063;28;20200;-60
2023/02/14 06:26:37;;;;;;;21.85;12.80;;;;;;;5.20;53.93;101105.31;5035391;28;20037;-60
2023/02/14 06:29:03;;;;;;;27.70;15.20;;;;;;;5.25;54.59;101099.78;5036867;28;20262;-62
2023/02/14 06:31:29;;;;;;;25.08;12.70;;;;;;;5.34;54.23;101105.31;5037601;28;20108;-60
2023/02/14 06:33:54;;;;;;;22.40;11.60;;;;;;;5.40;54.31;101104.09;5036632;28;20044;-60
2023/02/14 06:36:21;;;;;;;20.88;11.55;;;;;;;5.49;53.50;101097.41;5036670;28;20042;-60
2023/02/14 06:38:46;;;;;;;21.38;10.93;;;;;;;5.58;52.85;101096.84;5036448;28;21871;-60
2023/02/14 06:41:16;;;;;;;23.95;11.10;;;;;;;5.65;52.43;101103.38;5034908;28;20030;-60
2023/02/14 06:43:43;;;;;;;21.67;10.73;;;;;;;5.69;51.75;101107.50;5036744;28;20033;-60
2023/02/14 06:46:09;;;;;;;30.15;13.20;;;;;;;5.72;51.82;101109.94;5037000;28;20113;-63
2023/02/14 06:48:35;;;;;;;22.80;13.07;;;;;;;5.76;51.75;101114.91;5037289;28;20064;-62
2023/02/14 06:51:00;;;;;;;22.80;12.60;;;;;;;5.89;51.53;101111.47;5037566;28;20331;-60
2023/02/14 06:53:26;;;;;;;15.70;10.90;;;;;;;5.99;51.50;101102.09;5034719;28;20029;-60
2023/02/14 06:55:52;;;;;;;20.15;11.50;;;;;;;6.05;50.84;101106.94;5036100;28;20033;-61
2023/02/14 06:58:17;;;;;;;29.00;12.35;;;;;;;6.12;51.19;101102.97;5036066;28;20064;-62
2023/02/14 07:00:43;;;;;;;22.38;12.35;;;;;;;6.12;50.94;101100.34;5036491;28;20156;-60
2023/02/14 07:03:08;;;;;;;24.70;13.55;;;;;;;6.22;51.52;101101.44;5035670;28;20036;-61
2023/02/14 07:05:34;;;;;;;21.50;11.73;;;;;;;6.32;51.08;101097.28;5036557;28;20105;-61
2023/02/14 07:07:59;;;;;;;22.10;12.32;;;;;;;6.50;50.45;101099.63;5034954;28;20029;-63
2023/02/14 07:10:25;;;;;;;19.45;10.98;;;;;;;6.65;50.32;101104.69;5035444;28;20052;-62
2023/02/14 07:12:51;;;;;;;22.92;12.65;;;;;;;6.76;50.19;101092.59;5036273;28;20037;-61
2023/02/14 07:15:17;;;;;;;24.73;12.40;;;;;;;6.79;50.05;101097.66;5034417;28;20295;-61
2023/02/14 07:17:42;;;;;;;18.58;11.50;;;;;;;6.87;51.10;101092.69;5036246;28;20227;-60
2023/02/14 07:20:09;;;;;;;21.02;11.43;;;;;;;7.01;50.66;101085.53;5035095;28;20049;-61
2023/02/14 07:22:35;;;;;;;20.73;12.13;;;;;;;7.14;49.65;101093.44;5036378;28;20039;-63
2023/02/14 07:25:00;;;;;;;33.33;13.43;;;;;;;7.26;48.99;101089.94;5036982;28;20037;-60
2023/02/14 07:27:26;;;;;;;26.88;12.32;;;;;;;7.28;48.92;101093.31;5035661;28;20304;-60
2023/02/14 07:29:51;;;;;;;23.75;13.05;;;;;;;7.44;49.03;101089.59;5034525;28;20074;-60
2023/02/14 07:32:17;;;;;;;21.45;11.40;;;;;;;7.53;48.79;101095.06;5035204;28;20248;-61
2023/02/14 07:34:43;;;;;;;22.75;12.18;;;;;;;7.65;48.69;101083.63;5034961;28;20087;-61
2023/02/14 07:37:08;;;;;;;24.42;11.40;;;;;;;7.61;48.81;101082.19;5033495;28;20063;-60
2023/02/14 07:39:34;;;;;;;24.67;12.63;;;;;;;7.69;48.77;101077.19;5035905;28;20028;-61
2023/02/14 07:41:59;;;;;;;19.13;10.43;;;;;;;7.65;48.43;101088.06;5035115;28;20084;-61
2023/02/14 07:44:25;;;;;;;21.83;12.48;;;;;;;7.75;48.62;101082.97;5036777;28;20063;-62
2023/02/14 07:46:50;;;;;;;22.52;12.50;;;;;;;7.86;48.35;101078.59;5049684;28;20043;-60
2023/02/14 07:49:16;;;;;;;18.95;11.68;;;;;;;7.95;48.37;101085.84;5037119;28;20079;-61
2023/02/14 07:51:42;;;;;;;22.00;11.43;;;;;;;8.02;47.84;101084.44;5037096;28;20055;-61
2023/02/14 07:54:07;;;;;;;21.67;12.75;;;;;;;8.11;48.58;101075.00;5037028;28;20065;-61
2023/02/14 07:56:33;;;;;;;24.52;13.00;;;;;;;8.19;47.79;101071.78;5036926;28;20079;-63
2023/02/14 07:58:58;;;;;;;21.10;12.27;;;;;;;8.31;48.23;101070.88;5037111;28;20029;-62
2023/02/14 08:01:24;;;;;;;26.30;14.38;;;;;;;8.35;48.51;101067.09;5037113;28;20057;-61
2023/02/14 08:03:50;;;;;;;23.73;13.20;;;;;;;8.49;48.56;101076.63;5037145;28;20371;-62
2023/02/14 08:06:17;;;;;;;23.02;13.05;;;;;;;8.62;48.42;101072.94;5035769;28;20042;-61
2023/02/14 08:08:43;;;;;;;23.83;12.77;;;;;;;8.58;47.50;101074.13;5036366;28;20043;-61
2023/02/14 08:11:09;;;;;;;23.27;11.85;;;;;;;8.61;48.58;101076.53;5036657;28;20068;-63
2023/02/14 08:13:34;;;;;;;27.98;12.55;;;;;;;8.62;48.26;101072.09;5036139;28;20033;-63
2023/02/14 08:16:03;;;;;;;20.33;12.07;;;;;;;8.68;47.89;101079.53;5036994;28;20042;-61
2023/02/14 08:18:29;;;;;;;20.75;11.65;;;;;;;8.73;47.21;101076.56;5036957;28;20045;-61
2023/02/14 08:20:55;;;;;;;19.30;11.93;;;;;;;8.84;47.31;101087.13;5036188;28;20095;-61
2023/02/14 08:23:21;;;;;;;22.10;11.60;;;;;;;8.96;47.66;101094.09;5036771;28;20037;-61
2023/02/14 08:25:48;;;;;;;20.58;12.00;;;;;;;9.14;47.33;101092.69;5037091;28;20092;-60
2023/02/14 08:28:13;;;;;;;19.65;10.95;;;;;;;9.21;46.32;101096.50;5035679;28;20060;-62
2023/02/14 08:30:40;;;;;;;24.30;12.07;;;;;;;9.36;45.71;101097.13;5036459;28;20319;-61
2023/02/14 08:33:06;;;;;;;21.67;11.27;;;;;;;9.38;45.57;101086.44;5036702;28;20243;-61
2023/02/14 08:35:31;;;;;;;21.80;11.57;;;;;;;9.39;45.92;101102.19;5036744;28;20045;-62
2023/02/14 08:37:57;;;;;;;19.17;11.75;;;;;;;9.32;45.88;101097.47;5036365;28;20430;-62
2023/02/14 08:40:23;;;;;;;22.27;12.90;;;;;;;9.39;45.68;101096.91;5035927;28;20056;-61
2023/02/14 08:42:48;;;;;;;25.83;13.27;;;;;;;9.51;46.21;101103.84;5035303;28;20040;-61
2023/02/14 08:45:14;;;;;;;24.35;11.38;;;;;;;9.50;45.97;101096.06;5036795;28;20037;-63
2023/02/14 08:47:39;;;;;;;19.60;12.10;;;;;;;9.68;45.18;101094.56;5036518;28;20117;-61
2023/02/14 08:50:07;;;;;;;21.48;10.25;;;;;;;9.75;44.60;101089.63;5035664;28;20346;-60
2023/02/14 08:52:33;;;;;;;24.00;10.55;;;;;;;9.82;44.27;101091.66;5036086;28;20025;-62
2023/02/14 08:54:58;;;;;;;16.35;10.20;;;;;;;9.90;44.20;101080.44;5036487;28;20200;-62
2023/02/14 08:57:24;;;;;;;20.02;10.80;;;;;;;9.95;43.45;101080.06;5035817;28;20034;-61
2023/02/14 08:59:49;;;;;;;17.77;10.65;;;;;;;9.87;44.00;101075.41;5035582;28;20034;-62
2023/02/14 09:02:17;;;;;;;19.15;10.50;;;;;;;9.85;43.73;101075.53;5036006;28;20423;-62
2023/02/14 09:04:43;;;;;;;16.05;8.90;;;;;;;9.92;43.48;101071.41;5037907;28;20323;-62
2023/02/14 09:07:11;;;;;;;16.23;9.63;;;;;;;10.02;43.81;101063.56;5040005;28;20033;-62
2023/02/14 09:09:36;;;;;;;15.75;9.88;;;;;;;10.19;43.14;101059.53;5040528;28;20228;-63
2023/02/14 09:12:07;;;;;;;16.13;9.68;;;;;;;10.27;42.77;101062.41;5039629;28;20036;-63
2023/02/14 09:14:42;;;;;;;19.83;8.85;;;;;;;10.17;40.97;101053.53;5039386;28;20091;-61
2023/02/14 09:17:09;;;;;;;16.35;9.18;;;;;;;10.19;41.29;101046.28;5039816;28;20315;-61
2023/02/14 09:19:35;;;;;;;14.63;8.52;;;;;;;10.26;41.10;101050.13;5039184;28;20033;-62
2023/02/14 09:22:04;;;;;;;18.88;8.88;;;;;;;10.24;41.27;101052.91;5039172;28;20033;-62
2023/02/14 09:24:31;;;;;;;14.05;8.82;;;;;;;10.27;42.09;101048.31;5038982;28;20045;-62
2023/02/14 09:26:57;;;;;;;15.60;9.38;;;;;;;10.16;42.13;101054.47;5039204;28;20095;-63
2023/02/14 09:29:27;;;;;;;13.88;9.10;;;;;;;10.10;42.06;101034.66;5039996;28;20041;-63
2023/02/14 09:31:53;;;;;;;14.30;8.35;;;;;;;10.21;41.78;101031.16;5039730;28;20215;-62
2023/02/14 09:39:47;;;;;;;15.00;8.63;;;;;;;10.50;40.07;101026.91;5038768;28;20231;-61
2023/02/14 09:42:37;;;;;;;18.17;9.30;;;;;;;10.38;40.37;101027.09;5039332;28;20030;-61
2023/02/14 09:45:15;;;;;;;15.95;7.45;;;;;;;10.15;40.41;101024.53;5039331;28;20040;-63
2023/02/14 09:47:49;;;;;;;16.33;9.18;;;;;;;10.15;40.83;101031.63;5037624;28;20049;-61
2023/02/14 09:50:24;;;;;;;19.02;8.43;;;;;;;10.36;40.56;101035.16;5037747;28;20390;-61
2023/02/14 09:52:56;;;;;;;14.65;8.25;;;;;;;10.33;39.03;101024.00;5038878;28;20361;-61
2023/02/14 09:55:25;;;;;;;11.60;8.13;;;;;;;10.23;39.78;101022.13;5039255;28;20049;-61
2023/02/14 09:58:16;;;;;;;16.88;8.65;;;;;;;10.32;41.15;101009.06;5038739;28;20028;-61
2023/02/14 10:00:47;;;;;;;15.32;8.13;;;;;;;10.47;39.56;101010.44;5039165;28;20289;-61
2023/02/14 10:03:34;;;;;;;20.90;8.52;;;;;;;10.50;39.07;101012.84;5038680;28;20235;-62
2023/02/14 10:06:09;;;;;;;13.73;8.57;;;;;;;10.50;39.89;100995.13;5037843;28;20091;-62
2023/02/14 10:08:52;;;;;;;15.70;7.97;;;;;;;10.55;39.82;100997.41;5038193;28;20036;-63
2023/02/14 10:11:21;;;;;;;14.13;8.53;;;;;;;10.49;40.17;101006.69;5038476;28;20048;-62
2023/02/14 10:13:50;;;;;;;13.68;8.30;;;;;;;10.57;38.81;100990.16;5038922;28;20464;-61
2023/02/14 10:16:24;;;;;;;15.18;9.32;;;;;;;10.50;37.88;100992.50;5038982;28;20033;-62
2023/02/14 10:19:01;;;;;;;12.27;7.57;;;;;;;10.46;37.98;100979.66;5038930;28;20327;-61
2023/02/14 10:21:33;;;;;;;15.10;8.48;;;;;;;10.57;38.02;100974.25;5040565;28;20033;-61
2023/02/14 10:24:13;;;;;;;15.77;8.90;;;;;;;10.67;38.54;100976.97;5039752;28;20040;-63
2023/02/14 10:26:40;;;;;;;16.17;9.82;;;;;;;10.70;39.39;100980.19;5039248;28;20030;-64
2023/02/14 10:29:12;;;;;;;17.25;9.52;;;;;;;10.85;40.25;100978.84;5039575;28;20037;-61
2023/02/14 10:31:57;;;;;;;15.85;9.38;;;;;;;10.85;39.39;100973.56;5039307;28;20056;-61
2023/02/14 10:34:34;;;;;;;14.77;9.80;;;;;;;10.87;39.87;100965.47;5039048;28;20037;-60
2023/02/14 10:37:02;;;;;;;18.58;10.88;;;;;;;10.90;37.70;100965.19;5040533;28;20057;-61
2023/02/14 10:39:39;;;;;;;20.38;10.98;;;;;;;10.92;38.88;100950.00;5038491;28;20089;-61
2023/02/14 10:42:28;;;;;;;16.77;10.23;;;;;;;10.86;39.53;100950.53;5036713;28;20041;-60
2023/02/14 10:45:11;;;;;;;14.40;8.93;;;;;;;10.76;36.60;100947.84;5037471;28;20048;-62
2023/02/14 10:48:05;;;;;;;14.85;8.93;;;;;;;10.92;36.95;100942.06;5036702;28;20033;-61
2023/02/14 10:50:42;;;;;;;14.98;9.63;;;;;;;11.03;36.55;100938.44;5036361;28;20064;-61
2023/02/14 10:53:13;;;;;;;13.93;8.75;;;;;;;10.83;36.70;100934.91;5036877;28;20044;-62
2023/02/14 10:55:46;;;;;;;14.93;8.77;;;;;;;10.94;37.57;100933.97;5034798;28;20049;-61
2023/02/14 10:58:16;;;;;;;17.45;9.88;;;;;;;10.93;38.17;100930.47;5034837;28;20353;-61
2023/02/14 11:01:04;;;;;;;15.23;8.32;;;;;;;10.90;37.55;100930.75;5035772;28;20045;-61
2023/02/14 11:03:31;;;;;;;15.15;8.60;;;;;;;10.88;39.38;100917.63;5037403;28;20044;-60
2023/02/14 11:05:57;;;;;;;15.88;10.10;;;;;;;10.96;40.34;100916.13;5035752;28;20048;-61
2023/02/14 11:08:33;;;;;;;22.70;11.07;;;;;;;11.14;40.89;100914.47;5037564;28;20206;-61
2023/02/14 11:11:09;;;;;;;22.50;10.20;;;;;;;11.15;40.52;100913.50;5038337;28;20092;-64
2023/02/14 11:13:39;;;;;;;18.00;10.45;;;;;;;11.15;39.76;100906.38;5037634;28;20383;-65
2023/02/14 11:16:28;;;;;;;18.05;10.15;;;;;;;11.15;39.60;100916.16;5037917;28;20064;-61
2023/02/14 11:19:14;;;;;;;17.27;10.73;;;;;;;11.17;40.67;100909.75;5037164;28;20040;-61
2023/02/14 11:21:42;;;;;;;18.27;10.07;;;;;;;11.16;40.35;100912.53;5038471;28;20423;-61
2023/02/14 11:24:30;;;;;;;16.67;9.90;;;;;;;11.23;39.86;100900.41;5037468;28;20045;-61
2023/02/14 11:27:13;;;;;;;21.25;10.00;;;;;;;11.27;40.43;100900.97;5037090;28;20049;-63
2023/02/14 11:29:51;;;;;;;14.77;8.52;;;;;;;11.27;40.38;100903.63;5037126;28;20037;-63
2023/02/14 11:32:25;;;;;;;15.75;9.38;;;;;;;11.20;40.41;100895.38;5036915;28;20037;-63
2023/02/14 11:35:02;;;;;;;15.18;9.15;;;;;;;11.14;40.79;100894.09;5037758;28;20096;-62
2023/02/14 11:37:37;;;;;;;17.90;9.95;;;;;;;11.13;42.04;100884.47;5037212;28;20644;-62
2023/02/14 11:40:04;;;;;;;15.43;9.75;;;;;;;11.18;41.13;100886.72;5036740;28;20383;-63
2023/02/14 11:42:39;;;;;;;15.30;9.60;;;;;;;11.22;41.45;100889.94;5036360;28;20044;-62
2023/02/14 11:45:05;;;;;;;17.90;9.20;;;;;;;11.13;41.69;100889.78;5037333;28;20041;-62
2023/02/14 11:47:36;;;;;;;17.50;9.63;;;;;;;11.15;41.71;100882.53;5036340;28;20033;-62
2023/02/14 11:50:09;;;;;;;16.73;10.07;;;;;;;11.07;41.81;100871.78;5037090;28;20041;-62
2023/02/14 11:52:45;;;;;;;16.65;9.10;;;;;;;11.10;42.14;100874.16;5037313;28;20083;-64